Time;durP1;ratioP1;P1;durP2;ratioP2;P2;SDS_P1;SDS_P2;PMS_P1;PMS_P2;Temp;Humidity;BMP_temperature;BMP_pressure;BME280_temperature;BME280_humidity;BME280_pressure;Samples;Min_cycle;Max_cycle;Signal;HPM_P1;HPM_P2
2022/03/25 00:01:35;;;;;;;63.85;47.15;;;6.70;99.90;;;;;;5063255;28;20049;-80
2022/03/25 00:04:00;;;;;;;62.53;46.45;;;6.60;99.90;;;;;;5044131;28;20040;-80
2022/03/25 00:06:26;;;;;;;61.20;45.22;;;6.50;99.90;;;;;;5060667;28;20131;-81
2022/03/25 00:08:52;;;;;;;59.42;46.00;;;6.60;99.90;;;;;;5065182;28;20044;-81
2022/03/25 00:11:18;;;;;;;62.90;47.17;;;6.50;99.90;;;;;;5065264;28;20495;-80
2022/03/25 00:13:43;;;;;;;58.15;44.92;;;6.40;99.90;;;;;;5062356;28;20122;-80
2022/03/25 00:16:09;;;;;;;59.65;46.25;;;6.60;99.90;;;;;;5064333;28;20040;-80
2022/03/25 00:18:35;;;;;;;58.58;44.25;;;6.40;99.90;;;;;;5061828;28;20033;-81
2022/03/25 00:21:00;;;;;;;62.17;45.60;;;6.30;99.90;;;;;;5056739;28;20127;-81
2022/03/25 00:23:26;;;;;;;59.70;44.05;;;6.20;99.90;;;;;;5047834;28;20052;-81
2022/03/25 00:25:52;;;;;;;59.03;43.40;;;6.20;99.90;;;;;;5048966;28;20055;-81
2022/03/25 00:28:20;;;;;;;54.45;42.75;;;6.10;99.90;;;;;;5047074;28;20406;-81
2022/03/25 00:30:46;;;;;;;54.33;41.92;;;6.10;99.90;;;;;;5041247;28;20052;-80
2022/03/25 00:33:12;;;;;;;54.67;42.67;;;6.10;99.90;;;;;;5058889;28;20049;-81
2022/03/25 00:35:38;;;;;;;54.15;43.17;;;7.80;99.90;;;;;;5046061;28;20051;-81
2022/03/25 00:38:04;;;;;;;55.42;42.42;;;6.10;99.90;;;;;;5042830;28;20044;-81
2022/03/25 00:40:30;;;;;;;51.47;38.53;;;6.10;99.90;;;;;;5056472;28;20128;-80
2022/03/25 00:42:55;;;;;;;48.42;38.03;;;6.10;99.90;;;;;;5063953;28;20033;-80
2022/03/25 00:45:21;;;;;;;52.95;38.55;;;6.00;99.90;;;;;;5061153;28;20040;-80
2022/03/25 00:47:47;;;;;;;49.10;39.72;;;4.90;99.90;;;;;;5059462;28;20403;-80
2022/03/25 00:50:13;;;;;;;53.15;40.20;;;5.90;99.90;;;;;;5058909;28;20048;-81
2022/03/25 00:52:39;;;;;;;45.50;37.35;;;5.90;99.90;;;;;;5061895;28;20040;-81
2022/03/25 00:55:06;;;;;;;46.50;36.80;;;5.80;99.90;;;;;;5064543;28;20040;-79
2022/03/25 00:57:31;;;;;;;49.63;37.55;;;5.80;99.90;;;;;;5059053;28;20547;-81
2022/03/25 00:59:57;;;;;;;47.17;36.25;;;5.70;99.90;;;;;;5062180;28;20041;-80
2022/03/25 01:02:23;;;;;;;46.70;37.78;;;5.40;99.90;;;;;;5063670;28;20052;-81
2022/03/25 01:04:49;;;;;;;47.92;37.92;;;5.70;99.90;;;;;;5059585;28;20153;-80
2022/03/25 01:07:15;;;;;;;50.78;38.72;;;5.70;99.90;;;;;;5063547;28;20080;-80
2022/03/25 01:09:40;;;;;;;49.75;37.78;;;5.60;99.90;;;;;;5049149;28;20079;-80
2022/03/25 01:12:08;;;;;;;55.97;42.50;;;5.60;99.90;;;;;;5054224;28;20064;-81
2022/03/25 01:14:34;;;;;;;57.83;44.53;;;5.60;99.90;;;;;;5065457;28;20041;-80
2022/03/25 01:17:00;;;;;;;57.95;43.95;;;5.60;99.90;;;;;;5061882;28;20582;-80
2022/03/25 01:19:27;;;;;;;61.35;44.60;;;6.40;99.90;;;;;;5065627;28;20072;-80
2022/03/25 01:21:56;;;;;;;60.13;43.95;;;5.50;99.90;;;;;;5062717;28;20106;-81
2022/03/25 01:24:23;;;;;;;65.80;44.42;;;5.50;99.90;;;;;;5049569;28;20400;-80
2022/03/25 01:26:49;;;;;;;58.35;43.97;;;6.20;99.90;;;;;;5056270;28;20064;-80
2022/03/25 01:29:15;;;;;;;59.00;42.08;;;5.50;99.90;;;;;;5061009;28;20041;-80
2022/03/25 01:31:41;;;;;;;60.60;43.80;;;6.20;99.90;;;;;;5057761;28;20055;-80
2022/03/25 01:34:07;;;;;;;56.78;43.55;;;5.40;99.90;;;;;;5044428;28;20656;-81
2022/03/25 01:36:33;;;;;;;55.60;41.75;;;5.40;99.90;;;;;;5041171;28;20129;-81
2022/03/25 01:38:59;;;;;;;53.33;39.83;;;5.40;99.90;;;;;;5055128;28;20045;-81
2022/03/25 01:41:25;;;;;;;58.10;40.88;;;5.40;99.90;;;;;;5056917;28;20041;-80
2022/03/25 01:43:57;;;;;;;52.00;40.35;;;4.70;99.90;;;;;;5057569;28;20060;-80
2022/03/25 01:46:23;;;;;;;54.00;40.60;;;5.30;99.90;;;;;;5056613;28;20168;-81
2022/03/25 01:48:50;;;;;;;62.08;41.65;;;5.20;99.90;;;;;;5062852;28;20080;-81
2022/03/25 01:51:20;;;;;;;57.28;42.08;;;5.20;99.90;;;;;;5065515;28;20091;-80
2022/03/25 01:53:47;;;;;;;57.45;42.95;;;5.20;99.90;;;;;;5061405;28;20541;-80
2022/03/25 01:56:19;;;;;;;64.00;44.58;;;5.10;99.90;;;;;;5063676;28;20049;-80
2022/03/25 01:58:45;;;;;;;59.40;42.85;;;5.10;99.90;;;;;;5047476;28;20163;-81
2022/03/25 02:01:11;;;;;;;56.28;41.00;;;5.00;99.90;;;;;;5052863;28;20076;-81
2022/03/25 02:03:37;;;;;;;60.20;43.80;;;5.50;99.90;;;;;;5061601;28;20036;-81
2022/03/25 02:06:04;;;;;;;62.53;41.22;;;5.00;99.90;;;;;;5058137;28;20040;-82
2022/03/25 02:08:30;;;;;;;56.75;43.28;;;6.60;99.90;;;;;;5062312;28;20037;-81
2022/03/25 02:10:57;;;;;;;55.78;41.88;;;4.70;99.90;;;;;;5063847;28;20040;-80
2022/03/25 02:13:23;;;;;;;58.85;42.28;;;4.10;99.90;;;;;;5061387;28;20396;-80
2022/03/25 02:15:49;;;;;;;54.42;41.00;;;4.80;99.90;;;;;;5061315;28;20056;-81
2022/03/25 02:18:18;;;;;;;56.00;42.03;;;4.70;99.90;;;;;;5066305;28;20072;-81
2022/03/25 02:20:45;;;;;;;54.65;41.25;;;4.70;99.90;;;;;;5063715;28;20446;-81
2022/03/25 02:23:12;;;;;;;50.30;38.80;;;4.60;99.90;;;;;;5059280;28;20063;-81
2022/03/25 02:25:40;;;;;;;52.10;37.55;;;4.60;99.90;;;;;;5063252;28;20087;-81
2022/03/25 02:28:06;;;;;;;47.78;34.78;;;4.50;99.90;;;;;;5067010;28;20044;-81
2022/03/25 02:30:34;;;;;;;43.50;33.97;;;4.60;99.90;;;;;;5062207;28;20032;-80
2022/03/25 02:33:01;;;;;;;48.45;35.08;;;4.60;99.90;;;;;;5057588;28;20053;-80
2022/03/25 02:35:45;;;;;;;39.22;31.77;;;4.40;99.90;;;;;;5066603;28;20088;-81
2022/03/25 02:38:22;;;;;;;40.13;30.92;;;4.40;99.90;;;;;;5071586;28;20041;-81
2022/03/25 02:40:48;;;;;;;41.17;31.02;;;4.40;99.90;;;;;;5066008;28;20045;-81
2022/03/25 02:43:14;;;;;;;37.30;29.95;;;4.30;99.90;;;;;;5057658;28;20044;-81
2022/03/25 02:45:40;;;;;;;35.25;28.58;;;5.70;99.90;;;;;;5064432;28;20094;-81
2022/03/25 02:48:07;;;;;;;37.35;29.38;;;4.10;99.90;;;;;;5055105;28;20436;-81
2022/03/25 02:50:33;;;;;;;34.95;28.70;;;3.90;99.90;;;;;;5058828;28;20045;-81
2022/03/25 02:53:00;;;;;;;34.53;27.75;;;3.80;99.90;;;;;;5062998;28;20098;-81
2022/03/25 02:55:26;;;;;;;34.28;29.08;;;3.70;99.90;;;;;;5057128;28;20033;-80
2022/03/25 02:57:55;;;;;;;30.88;26.42;;;3.70;99.90;;;;;;5068180;28;20068;-81
2022/03/25 03:00:22;;;;;;;36.55;27.10;;;3.70;99.90;;;;;;5059778;28;20547;-81
2022/03/25 03:02:48;;;;;;;33.70;26.55;;;3.80;99.90;;;;;;5058396;28;20130;-80
2022/03/25 03:05:14;;;;;;;32.75;26.75;;;3.80;99.90;;;;;;5058136;28;20082;-80
2022/03/25 03:07:40;;;;;;;33.63;26.77;;;3.80;99.90;;;;;;5062152;28;20078;-81
2022/03/25 03:10:08;;;;;;;33.92;28.60;;;3.40;99.90;;;;;;5039092;28;20045;-80
2022/03/25 03:12:35;;;;;;;34.92;26.58;;;3.70;99.90;;;;;;5067108;28;20047;-80
2022/03/25 03:15:02;;;;;;;35.22;27.98;;;3.80;99.90;;;;;;5063101;28;20078;-80
2022/03/25 03:17:28;;;;;;;31.65;27.05;;;3.30;99.90;;;;;;5062139;28;20044;-79
2022/03/25 03:19:54;;;;;;;31.55;26.38;;;3.70;99.90;;;;;;5059192;28;20139;-81
2022/03/25 03:22:21;;;;;;;30.17;26.10;;;3.70;99.90;;;;;;5044733;28;20414;-79
2022/03/25 03:24:47;;;;;;;29.90;26.13;;;3.70;99.90;;;;;;5045233;28;20107;-79
2022/03/25 03:27:12;;;;;;;36.10;27.92;;;3.60;99.90;;;;;;5055082;28;20056;-80
2022/03/25 03:29:38;;;;;;;29.83;26.00;;;3.50;99.90;;;;;;5067132;28;20459;-81
2022/03/25 03:32:05;;;;;;;32.45;25.05;;;3.50;99.90;;;;;;5060761;28;20583;-79
2022/03/25 03:34:32;;;;;;;32.85;26.38;;;3.60;99.90;;;;;;5046574;28;20378;-80
2022/03/25 03:36:58;;;;;;;41.33;28.25;;;3.50;99.90;;;;;;5055815;28;20124;-81
2022/03/25 03:39:24;;;;;;;35.72;26.73;;;3.60;99.90;;;;;;5064344;28;20492;-82
2022/03/25 03:41:49;;;;;;;31.52;26.10;;;4.40;99.90;;;;;;5065300;28;20105;-79
2022/03/25 03:44:15;;;;;;;30.38;25.13;;;5.60;99.90;;;;;;5059316;28;20040;-80
2022/03/25 03:46:41;;;;;;;32.10;25.60;;;3.50;99.90;;;;;;5046614;28;20225;-79
2022/03/25 03:49:07;;;;;;;31.65;26.08;;;4.00;99.90;;;;;;5063872;28;20032;-80
2022/03/25 03:51:32;;;;;;;33.65;25.55;;;3.20;99.90;;;;;;5045030;28;20036;-80
2022/03/25 03:53:58;;;;;;;35.78;26.73;;;2.90;99.90;;;;;;5059874;28;20501;-80
2022/03/25 03:56:24;;;;;;;33.67;26.98;;;3.20;99.90;;;;;;5040272;28;20039;-80
2022/03/25 03:58:50;;;;;;;31.83;25.67;;;5.30;99.90;;;;;;5046096;28;20072;-80
2022/03/25 04:01:16;;;;;;;33.60;26.00;;;3.20;99.90;;;;;;5059603;28;20083;-81
2022/03/25 04:03:41;;;;;;;33.65;25.02;;;2.90;99.90;;;;;;5046270;28;20039;-79
2022/03/25 04:06:09;;;;;;;31.58;24.70;;;3.00;99.90;;;;;;5059599;28;20044;-80
2022/03/25 04:08:35;;;;;;;34.10;25.33;;;3.10;99.90;;;;;;5058321;28;20656;-80
2022/03/25 04:11:02;;;;;;;31.17;25.65;;;3.10;99.90;;;;;;5061251;28;20127;-80
2022/03/25 04:13:28;;;;;;;37.72;28.15;;;4.80;99.90;;;;;;5066627;28;20032;-81
2022/03/25 04:15:54;;;;;;;34.38;25.58;;;3.00;99.90;;;;;;5040103;28;20378;-81
2022/03/25 04:18:20;;;;;;;34.03;27.15;;;4.80;99.90;;;;;;5060288;28;20485;-80
2022/03/25 04:20:46;;;;;;;33.13;24.60;;;3.30;99.90;;;;;;5039484;28;20123;-80
2022/03/25 04:23:11;;;;;;;31.45;25.55;;;2.80;99.90;;;;;;5062930;28;20111;-80
2022/03/25 04:25:37;;;;;;;34.22;25.98;;;3.20;99.90;;;;;;5064828;28;20488;-80
2022/03/25 04:28:02;;;;;;;34.80;27.63;;;3.20;99.90;;;;;;5047380;28;20634;-80
2022/03/25 04:30:31;;;;;;;39.55;27.02;;;3.10;99.90;;;;;;5062662;28;20052;-81
2022/03/25 04:32:58;;;;;;;31.42;26.17;;;3.20;99.90;;;;;;5061782;28;20445;-80
2022/03/25 04:35:25;;;;;;;34.13;26.42;;;5.30;99.90;;;;;;5040070;28;20033;-81
2022/03/25 04:37:52;;;;;;;34.13;27.02;;;2.80;99.90;;;;;;5059630;28;20044;-79
2022/03/25 04:40:19;;;;;;;36.38;26.98;;;2.80;99.90;;;;;;5043098;28;20098;-79
2022/03/25 04:42:48;;;;;;;34.88;26.08;;;3.20;99.90;;;;;;5065167;28;20390;-79
2022/03/25 04:45:15;;;;;;;32.25;26.45;;;3.70;99.90;;;;;;5058969;28;20052;-79
2022/03/25 04:47:41;;;;;;;34.33;27.02;;;5.00;99.90;;;;;;5064310;28;20051;-79
2022/03/25 04:50:08;;;;;;;40.88;27.63;;;3.10;99.90;;;;;;5060863;28;20489;-80
2022/03/25 04:52:33;;;;;;;36.70;26.10;;;3.20;99.90;;;;;;5093517;28;20387;-79
2022/03/25 04:54:59;;;;;;;35.83;28.52;;;3.20;99.90;;;;;;5063022;28;20489;-79
2022/03/25 04:57:25;;;;;;;36.88;27.23;;;3.20;99.90;;;;;;5047351;28;20032;-81
2022/03/25 04:59:51;;;;;;;36.08;26.88;;;3.10;99.90;;;;;;5063928;28;20053;-80
2022/03/25 05:02:17;;;;;;;40.65;27.13;;;4.10;99.90;;;;;;5062006;28;20047;-79
2022/03/25 05:04:42;;;;;;;35.83;28.05;;;2.30;99.90;;;;;;5042044;28;20052;-80
2022/03/25 05:07:15;;;;;;;34.65;26.58;;;2.80;99.90;;;;;;5063761;28;20121;-80
2022/03/25 05:09:41;;;;;;;37.03;28.92;;;3.00;99.90;;;;;;5047058;28;20056;-81
2022/03/25 05:12:08;;;;;;;39.72;29.13;;;3.60;99.90;;;;;;5062881;28;20417;-79
2022/03/25 05:14:34;;;;;;;41.53;29.52;;;3.00;99.90;;;;;;5062522;28;20040;-81
2022/03/25 05:17:00;;;;;;;38.95;28.88;;;2.90;99.90;;;;;;5061413;28;20127;-80
2022/03/25 05:19:26;;;;;;;39.58;27.77;;;2.90;99.90;;;;;;5060477;28;20099;-80
2022/03/25 05:21:51;;;;;;;37.83;28.50;;;4.10;99.90;;;;;;5063678;28;20485;-79
2022/03/25 05:24:17;;;;;;;36.47;28.77;;;2.90;99.90;;;;;;5057432;28;20062;-80
2022/03/25 05:26:43;;;;;;;40.92;29.17;;;2.90;99.90;;;;;;5044817;28;20600;-80
2022/03/25 05:29:09;;;;;;;38.28;29.13;;;2.90;99.90;;;;;;5046343;28;20048;-80
2022/03/25 05:31:36;;;;;;;38.90;29.02;;;2.90;99.90;;;;;;5056267;28;20377;-80
2022/03/25 05:34:04;;;;;;;90.13;58.63;;;4.50;99.90;;;;;;5060195;28;20040;-80
2022/03/25 05:36:31;;;;;;;39.85;29.33;;;2.30;99.90;;;;;;5062986;28;20039;-80
2022/03/25 05:38:57;;;;;;;41.42;28.60;;;2.90;99.90;;;;;;5065404;28;20041;-80
2022/03/25 05:41:24;;;;;;;38.08;27.20;;;2.90;99.90;;;;;;5065155;28;20231;-80
2022/03/25 05:43:50;;;;;;;39.88;28.63;;;2.90;99.90;;;;;;5064617;28;20041;-80
2022/03/25 05:46:16;;;;;;;42.05;29.70;;;2.20;99.90;;;;;;5065554;28;20044;-80
2022/03/25 05:48:42;;;;;;;38.90;29.85;;;3.00;99.90;;;;;;5044170;28;20037;-80
2022/03/25 05:51:10;;;;;;;42.10;28.70;;;3.00;99.90;;;;;;5061169;28;20210;-82
2022/03/25 05:53:39;;;;;;;43.00;31.13;;;3.00;99.90;;;;;;5046493;28;20041;-81
2022/03/25 05:56:05;;;;;;;39.92;29.95;;;3.00;99.90;;;;;;5059706;28;20121;-81
2022/03/25 05:58:38;;;;;;;44.42;30.35;;;3.00;99.90;;;;;;5060939;28;20435;-81
2022/03/25 06:01:06;;;;;;;43.58;29.30;;;3.10;99.90;;;;;;5057213;28;20036;-81
2022/03/25 06:03:32;;;;;;;43.65;30.02;;;3.10;99.90;;;;;;5056630;28;20051;-81
2022/03/25 06:06:03;;;;;;;43.67;31.50;;;2.90;99.90;;;;;;5065602;28;20041;-81
2022/03/25 06:08:30;;;;;;;48.20;32.22;;;4.30;99.90;;;;;;5060190;28;20164;-80
2022/03/25 06:10:56;;;;;;;47.35;32.70;;;3.00;99.90;;;;;;5062142;28;20051;-82
2022/03/25 06:13:23;;;;;;;47.28;32.40;;;3.20;99.90;;;;;;5062986;28;20033;-81
2022/03/25 06:15:49;;;;;;;47.60;33.92;;;2.60;99.90;;;;;;5061581;28;20049;-80
2022/03/25 06:18:16;;;;;;;45.95;32.08;;;3.20;99.90;;;;;;5043830;28;20067;-81
2022/03/25 06:20:42;;;;;;;47.38;33.60;;;3.20;99.90;;;;;;5061513;28;20037;-81
2022/03/25 06:23:07;;;;;;;50.47;34.58;;;3.00;99.90;;;;;;5060201;28;20044;-80
2022/03/25 06:25:33;;;;;;;49.25;35.28;;;3.80;99.90;;;;;;5059410;28;20037;-80
2022/03/25 06:28:01;;;;;;;52.00;34.50;;;2.80;99.90;;;;;;5039004;28;20049;-83
2022/03/25 06:30:36;;;;;;;49.85;33.65;;;3.10;99.90;;;;;;5044770;28;20095;-82
2022/03/25 06:33:10;;;;;;;49.13;34.22;;;3.30;99.90;;;;;;5044339;28;20049;-80
2022/03/25 06:35:38;;;;;;;59.97;33.83;;;3.80;99.90;;;;;;5058853;28;20068;-80
2022/03/25 06:38:04;;;;;;;48.55;33.05;;;3.40;99.90;;;;;;5061401;28;20299;-81
2022/03/25 06:40:30;;;;;;;49.05;33.92;;;3.40;99.90;;;;;;5072667;28;20044;-82
2022/03/25 06:42:57;;;;;;;50.72;37.08;;;3.50;99.90;;;;;;5058944;28;20068;-81
2022/03/25 06:45:24;;;;;;;52.92;37.10;;;3.50;99.90;;;;;;5061631;28;20064;-81
2022/03/25 06:47:50;;;;;;;51.50;35.75;;;3.40;99.90;;;;;;5061974;28;20040;-80
2022/03/25 06:50:18;;;;;;;49.95;34.55;;;3.60;99.90;;;;;;5059005;28;20342;-81
2022/03/25 06:52:46;;;;;;;51.45;34.20;;;3.60;99.90;;;;;;5051346;28;20127;-81
2022/03/25 06:55:12;;;;;;;52.67;36.40;;;3.70;99.90;;;;;;5052453;28;20052;-83
2022/03/25 06:57:39;;;;;;;56.50;36.28;;;3.70;99.90;;;;;;5069986;28;20475;-79
2022/03/25 07:00:05;;;;;;;59.13;35.47;;;3.80;99.90;;;;;;5067868;28;20044;-80
2022/03/25 07:02:31;;;;;;;68.18;36.20;;;3.80;99.90;;;;;;5064626;28;20040;-81
2022/03/25 07:04:57;;;;;;;61.85;37.75;;;3.90;99.90;;;;;;5067104;28;20033;-80
2022/03/25 07:07:26;;;;;;;56.97;37.85;;;4.60;99.90;;;;;;5068909;28;20044;-81
2022/03/25 07:09:53;;;;;;;57.17;36.28;;;4.10;99.90;;;;;;5068252;28;20044;-82
2022/03/25 07:12:21;;;;;;;59.67;37.78;;;4.10;99.90;;;;;;5068369;28;20498;-81
2022/03/25 07:14:47;;;;;;;56.03;36.65;;;3.90;99.90;;;;;;4358345;28;10000843;-79
2022/03/25 07:17:13;;;;;;;63.33;36.70;;;4.20;99.90;;;;;;5063377;28;20041;-80
2022/03/25 07:19:38;;;;;;;52.97;35.30;;;4.30;99.90;;;;;;5058554;28;20045;-81
2022/03/25 07:22:04;;;;;;;53.25;35.17;;;4.40;99.90;;;;;;5064174;28;20083;-79
2022/03/25 07:24:30;;;;;;;52.05;33.42;;;4.50;99.90;;;;;;5057529;28;20126;-85
2022/03/25 07:26:56;;;;;;;48.80;33.50;;;4.50;99.90;;;;;;5064908;28;20579;-79
2022/03/25 07:29:21;;;;;;;50.78;33.70;;;4.60;99.90;;;;;;5065009;28;20033;-80
2022/03/25 07:31:47;;;;;;;49.03;32.30;;;4.70;99.90;;;;;;5064936;28;20355;-78
2022/03/25 07:34:14;;;;;;;51.20;32.65;;;4.30;99.90;;;;;;5066072;28;20037;-80
2022/03/25 07:36:39;;;;;;;47.90;31.95;;;4.80;99.90;;;;;;5049418;28;20452;-79
2022/03/25 07:39:05;;;;;;;47.00;32.40;;;4.90;99.90;;;;;;5064627;28;20040;-80
2022/03/25 07:41:31;;;;;;;51.20;34.75;;;5.00;99.90;;;;;;5065615;28;20570;-80
2022/03/25 07:43:56;;;;;;;46.60;32.47;;;5.10;99.90;;;;;;5048805;28;20048;-79
2022/03/25 07:46:25;;;;;;;49.00;32.63;;;5.10;99.90;;;;;;5065743;28;20412;-79
2022/03/25 07:48:51;;;;;;;48.55;31.17;;;5.10;99.90;;;;;;5049795;28;20044;-79
2022/03/25 07:51:17;;;;;;;48.20;31.27;;;4.90;99.90;;;;;;5064715;28;20040;-78
2022/03/25 07:53:44;;;;;;;41.72;29.75;;;4.80;99.90;;;;;;5048246;28;20102;-80
2022/03/25 07:56:10;;;;;;;43.67;29.75;;;7.60;99.90;;;;;;5049197;28;20488;-79
2022/03/25 07:58:36;;;;;;;41.67;29.42;;;5.60;99.90;;;;;;5065750;28;20051;-79
2022/03/25 08:01:02;;;;;;;40.65;27.95;;;5.70;99.90;;;;;;5047687;28;20461;-78
2022/03/25 08:03:27;;;;;;;44.40;27.85;;;6.10;99.90;;;;;;5066252;28;20033;-79
2022/03/25 08:05:54;;;;;;;38.53;26.77;;;5.50;99.90;;;;;;5065271;28;20091;-79
2022/03/25 08:08:20;;;;;;;38.85;24.67;;;5.70;99.90;;;;;;5064036;28;20040;-79
2022/03/25 08:10:47;;;;;;;37.85;24.92;;;5.60;99.90;;;;;;5050302;28;20496;-78
2022/03/25 08:13:13;;;;;;;39.83;26.70;;;7.50;99.90;;;;;;5067324;28;20102;-79
2022/03/25 08:15:39;;;;;;;39.42;24.52;;;6.30;99.90;;;;;;5051092;28;20522;-79
2022/03/25 08:18:10;;;;;;;36.83;23.98;;;6.20;99.90;;;;;;5060255;28;20116;-79
2022/03/25 08:20:41;;;;;;;39.65;24.63;;;6.40;99.90;;;;;;5066839;28;20055;-79
2022/03/25 08:23:13;;;;;;;36.78;23.90;;;6.40;99.90;;;;;;5067920;28;20116;-79
2022/03/25 08:28:26;;;;;;;36.45;24.20;;;6.50;99.90;;;;;;5066838;28;20147;-80
2022/03/25 08:30:52;;;;;;;32.88;23.05;;;6.50;99.90;;;;;;5066348;28;20136;-79
2022/03/25 08:33:18;;;;;;;39.78;23.75;;;6.80;99.90;;;;;;5050570;28;20036;-79
2022/03/25 08:35:44;;;;;;;36.88;21.35;;;6.70;99.90;;;;;;5066630;28;20090;-80
2022/03/25 08:38:11;;;;;;;31.80;21.73;;;7.30;99.90;;;;;;5066679;28;20541;-78
2022/03/25 08:40:38;;;;;;;33.70;21.65;;;7.00;99.90;;;;;;5042961;28;20025;-80
2022/03/25 08:43:05;;;;;;;30.77;20.45;;;6.80;99.90;;;;;;5057148;28;20571;-78
2022/03/25 08:45:32;;;;;;;33.45;20.23;;;7.20;99.90;;;;;;5034442;28;20046;-80
2022/03/25 08:47:58;;;;;;;31.65;20.55;;;8.70;99.90;;;;;;5049748;28;20109;-78
2022/03/25 08:50:25;;;;;;;34.92;21.92;;;7.30;99.90;;;;;;5043127;28;20128;-79
2022/03/25 08:52:51;;;;;;;29.02;20.25;;;6.50;99.90;;;;;;5048985;28;20573;-79
2022/03/25 08:55:19;;;;;;;36.78;22.88;;;7.50;99.90;;;;;;5068664;28;20043;-79
2022/03/25 08:57:45;;;;;;;30.50;20.38;;;7.40;99.90;;;;;;5068225;28;20051;-72
2022/03/25 09:00:13;;;;;;;34.40;20.00;;;7.70;99.90;;;;;;5050062;28;20041;-72
2022/03/25 09:02:41;;;;;;;30.30;19.95;;;7.90;99.90;;;;;;5065293;28;20072;-73
2022/03/25 09:05:08;;;;;;;37.08;21.67;;;9.00;99.90;;;;;;5049696;28;20040;-80
2022/03/25 09:07:34;;;;;;;34.08;21.75;;;8.10;99.90;;;;;;5066454;28;20523;-79
2022/03/25 09:10:00;;;;;;;33.47;21.05;;;8.20;99.90;;;;;;5049406;28;20123;-80
2022/03/25 09:12:26;;;;;;;30.00;20.13;;;8.10;99.90;;;;;;5049998;28;20507;-79
2022/03/25 09:14:52;;;;;;;33.28;19.60;;;8.20;99.90;;;;;;5050637;28;20036;-85
2022/03/25 09:17:17;;;;;;;31.90;19.90;;;8.30;99.90;;;;;;5049484;28;20499;-84
2022/03/25 09:19:43;;;;;;;35.85;20.15;;;8.40;99.90;;;;;;5066508;28;20056;-81
2022/03/25 09:22:10;;;;;;;30.42;20.25;;;8.50;99.90;;;;;;5049807;28;20051;-79
2022/03/25 09:24:35;;;;;;;26.17;18.33;;;8.50;99.90;;;;;;5068468;28;20033;-82
2022/03/25 09:27:02;;;;;;;27.55;18.83;;;8.50;99.90;;;;;;5071472;28;20082;-78
2022/03/25 09:29:27;;;;;;;31.05;19.27;;;8.70;99.90;;;;;;5070905;28;20101;-82
2022/03/25 09:31:53;;;;;;;30.33;18.75;;;8.70;99.90;;;;;;5053254;28;20492;-83
2022/03/25 09:37:03;;;;;;;30.98;19.17;;;10.60;99.90;;;;;;5070579;28;20453;-80
2022/03/25 09:39:29;;;;;;;32.40;19.55;;;9.00;99.90;;;;;;5070273;28;20374;-83
2022/03/25 09:41:55;;;;;;;31.70;21.08;;;9.10;99.90;;;;;;5053798;28;20127;-81
2022/03/25 09:44:21;;;;;;;31.25;18.58;;;9.20;99.90;;;;;;5071615;28;20434;-80
2022/03/25 09:46:50;;;;;;;27.92;19.08;;;9.30;99.90;;;;;;5069807;28;20044;-81
2022/03/25 09:49:17;;;;;;;31.10;18.70;;;9.30;99.90;;;;;;5071531;28;20463;-82
2022/03/25 09:51:44;;;;;;;34.95;19.25;;;9.40;99.90;;;;;;5069624;28;20595;-82
2022/03/25 09:54:12;;;;;;;28.40;17.33;;;10.80;99.90;;;;;;5071715;28;20036;-79
2022/03/25 09:56:38;;;;;;;32.75;19.48;;;9.70;99.90;;;;;;5053727;28;20036;-80
2022/03/25 09:59:06;;;;;;;28.95;19.38;;;9.80;99.90;;;;;;5069289;28;20056;-78
2022/03/25 10:01:32;;;;;;;29.80;18.27;;;9.90;99.90;;;;;;5071408;28;20075;-79
2022/03/25 10:03:58;;;;;;;31.92;18.33;;;10.00;99.90;;;;;;5055593;28;20502;-80
2022/03/25 10:06:24;;;;;;;32.70;19.08;;;10.10;99.90;;;;;;5071699;28;20048;-81
2022/03/25 10:08:59;;;;;;;29.00;19.70;;;10.10;99.90;;;;;;5053279;28;20051;-80
2022/03/25 10:11:30;;;;;;;;;;;10.30;99.90;;;;;;5054181;28;20045;-80
2022/03/25 10:14:29;;;;;;;33.35;18.92;;;10.40;99.90;;;;;;5069153;28;20327;-80
2022/03/25 10:16:55;;;;;;;31.35;18.48;;;10.50;99.90;;;;;;5070071;28;20056;-85
2022/03/25 10:19:24;;;;;;;29.70;19.85;;;10.60;99.90;;;;;;5071059;28;20040;-80
2022/03/25 10:21:59;;;;;;;40.13;21.20;;;10.60;99.90;;;;;;5070253;28;20089;-80
2022/03/25 10:24:41;;;;;;;38.03;20.67;;;10.80;99.90;;;;;;5070434;28;20428;-82
2022/03/25 10:27:07;;;;;;;45.30;20.17;;;10.90;99.90;;;;;;5068645;28;20036;-84
2022/03/25 10:29:35;;;;;;;29.80;19.02;;;10.80;99.90;;;;;;5069803;28;20044;-81
2022/03/25 10:32:07;;;;;;;30.17;20.60;;;11.10;99.90;;;;;;5063030;28;20053;-80
2022/03/25 10:34:33;;;;;;;32.13;21.48;;;11.10;99.90;;;;;;5080826;28;20044;-80
2022/03/25 10:37:01;;;;;;;31.27;20.85;;;11.20;99.90;;;;;;5052970;28;20048;-84
2022/03/25 10:39:28;;;;;;;38.80;21.25;;;11.30;99.90;;;;;;5069386;28;20056;-82
2022/03/25 10:41:57;;;;;;;37.08;20.80;;;11.40;99.90;;;;;;5068367;28;20055;-81
2022/03/25 10:44:41;;;;;;;33.58;20.33;;;11.60;99.90;;;;;;5071137;28;20044;-84
2022/03/25 10:47:16;;;;;;;47.22;21.75;;;11.70;99.90;;;;;;5067073;28;20102;-79
2022/03/25 10:49:43;;;;;;;37.72;20.30;;;12.50;99.90;;;;;;5066406;28;20365;-83
2022/03/25 10:52:31;;;;;;;32.42;19.65;;;12.00;99.90;;;;;;5068793;28;20037;-84
2022/03/25 10:55:15;;;;;;;38.60;19.75;;;12.10;99.90;;;;;;5069073;28;20102;-81
2022/03/25 10:57:51;;;;;;;26.50;18.48;;;12.20;99.90;;;;;;5070104;28;20443;-81
2022/03/25 11:00:18;;;;;;;32.92;18.27;;;12.40;99.80;;;;;;5044333;28;20201;-81
2022/03/25 11:02:45;;;;;;;31.48;18.98;;;12.50;99.40;;;;;;5068206;28;20055;-80
2022/03/25 11:05:12;;;;;;;33.15;18.23;;;12.60;99.00;;;;;;5069423;28;20075;-81
2022/03/25 11:07:41;;;;;;;35.55;19.42;;;12.80;98.90;;;;;;5052363;28;20044;-80
2022/03/25 11:10:07;;;;;;;28.05;19.20;;;13.00;98.70;;;;;;5068923;28;20044;-81
2022/03/25 11:12:33;;;;;;;32.53;19.60;;;13.10;98.30;;;;;;5070293;28;20040;-81
2022/03/25 11:14:59;;;;;;;29.08;18.77;;;13.30;98.10;;;;;;5065884;28;20052;-85
2022/03/25 11:17:36;;;;;;;30.92;20.85;;;13.40;97.80;;;;;;5061163;28;20456;-81
2022/03/25 11:20:02;;;;;;;30.25;20.20;;;12.40;96.90;;;;;;5049561;28;20803;-81
2022/03/25 11:22:28;;;;;;;35.05;20.63;;;13.60;97.10;;;;;;5068553;28;20043;-73
2022/03/25 11:24:59;;;;;;;31.90;20.05;;;13.70;96.80;;;;;;5067966;28;20071;-72
2022/03/25 11:27:31;;;;;;;30.65;19.60;;;13.80;96.50;;;;;;5070091;28;20462;-71
2022/03/25 11:30:02;;;;;;;30.50;19.17;;;14.00;96.40;;;;;;5067849;28;20084;-72
2022/03/25 11:32:28;;;;;;;30.23;20.05;;;14.10;96.00;;;;;;5068729;28;20053;-71
2022/03/25 11:34:53;;;;;;;27.02;19.08;;;14.30;95.70;;;;;;5068179;28;20373;-72
2022/03/25 11:37:30;;;;;;;29.75;19.30;;;14.40;95.20;;;;;;5067815;28;20068;-72
2022/03/25 11:40:14;;;;;;;33.65;19.20;;;14.50;94.90;;;;;;5067995;28;20113;-72
2022/03/25 11:42:44;;;;;;;31.88;19.95;;;14.70;94.30;;;;;;5068250;28;20040;-71
2022/03/25 11:45:22;;;;;;;31.02;20.98;;;14.10;93.90;;;;;;5067564;28;20048;-72
2022/03/25 11:47:59;;;;;;;31.65;21.25;;;14.90;94.00;;;;;;5067339;28;20455;-72
2022/03/25 11:50:36;;;;;;;32.92;21.90;;;15.00;93.40;;;;;;5060550;28;20056;-73
2022/03/25 11:53:11;;;;;;;34.95;22.95;;;15.10;93.40;;;;;;5066804;28;20044;-73
2022/03/25 11:56:06;;;;;;;31.67;20.75;;;14.50;92.60;;;;;;5051274;28;20040;-73
2022/03/25 11:58:38;;;;;;;33.80;22.20;;;15.30;92.70;;;;;;5062336;28;20071;-73
2022/03/25 12:01:12;;;;;;;31.23;22.10;;;15.50;92.50;;;;;;5068642;28;20041;-73
2022/03/25 12:03:42;;;;;;;30.92;20.25;;;15.60;92.10;;;;;;5069286;28;20041;-73
2022/03/25 12:06:08;;;;;;;34.15;20.35;;;15.70;92.00;;;;;;5066602;28;20048;-72
2022/03/25 12:08:35;;;;;;;29.70;20.70;;;15.80;91.20;;;;;;5068130;28;20044;-72
2022/03/25 12:11:05;;;;;;;29.17;18.63;;;15.80;90.60;;;;;;5066829;28;20087;-72
2022/03/25 12:14:04;;;;;;;29.83;19.67;;;15.70;90.40;;;;;;5066811;28;20059;-72
2022/03/25 12:16:53;;;;;;;31.90;18.67;;;15.80;89.90;;;;;;5055810;28;20123;-73
2022/03/25 12:19:28;;;;;;;32.20;17.95;;;15.90;89.20;;;;;;5067049;28;20044;-80
2022/03/25 12:22:01;;;;;;;27.13;18.10;;;16.10;88.70;;;;;;5065279;28;20567;-83
2022/03/25 12:24:27;;;;;;;27.08;17.05;;;16.10;87.60;;;;;;5068587;28;20036;-81
2022/03/25 12:26:58;;;;;;;25.23;14.95;;;16.20;86.80;;;;;;5066242;28;20508;-79
2022/03/25 12:29:31;;;;;;;24.67;15.00;;;16.20;82.90;;;;;;5060714;28;20132;-80
2022/03/25 12:32:03;;;;;;;28.35;15.73;;;16.20;84.00;;;;;;5065748;28;20113;-79
2022/03/25 12:34:32;;;;;;;23.70;14.93;;;16.30;84.30;;;;;;5059886;28;20639;-79
2022/03/25 12:37:02;;;;;;;25.77;14.63;;;16.40;83.40;;;;;;5067014;28;20206;-80
2022/03/25 12:39:31;;;;;;;22.38;12.65;;;16.50;82.70;;;;;;5026408;28;20456;-81
2022/03/25 12:41:56;;;;;;;25.58;13.77;;;16.60;80.20;;;;;;5062813;28;20048;-79
2022/03/25 12:44:27;;;;;;;25.33;14.27;;;16.70;80.30;;;;;;5065644;28;20541;-81